Archival Weather

Chicago O'Hare International

Chicago, Illinois (KORD)

Report from: Sunday, February 4, 2024 5:51 AM CST
Current time: Wednesday, April 24, 2024 2:24 PM CDT

Current weather – Weather history – Daily summaries
Weather forecast

Present weatherMist
Temperature-0.6°C (30.9°F)
Wind chill-4.3°C (24.3°F)
Dew point-2.2°C (28.0°F)
Winds 6 kts (3.1 m/s, 6.9 mph) Northeast (40°)
Visibility6 mi. (9.7 km)
Clouds Few clouds 30,000 ft. (9,144 m)
Altimeter30.03 in.Hg (1017 mB)
Relative humidity89 %
Density altitude-1,978 ft. (-603 m)
Sea-level pressure101.8 kPa (1018 mB, 30.05 in.Hg)
Max temp last 6 hours1.1°C (34.0°F)
Min temp last 6 hours-1.1°C (30.0°F)
Remarks System requires maintenance
Automated weather observing station with precipitation discriminator
Pressure rising more quickly
Flight conditions Visual Meteorological Conditions
Raw dataKORD 041151Z 04006KT 6SM BR FEW300 M01/M02 A3003 RMK AO2 SLP176 I6000 T10061022 10011 21011 53003 $
An error has occurred. This application may no longer respond until reloaded. Reload 🗙